WMSA/SZB METAR and TAF weather

Enter ICAO airport designator
Station Type Date Time Source
WMSA METAR 2020/01/21 18:00 UTC NOAA

WMSA 211800Z 00000KT 9000 FEW026 27/26 Q1013


Station Type Date Time Source
WMSA Decoded METAR 2020/01/21 18:00 UTC NOAA

Subang/Sultan Abdul Aziz Shah Airport, Malaysia (WMSA) 03-07N 101-32E
Jan 21, 2020 - 01:00 PM EST / 2020.01.21 1800 UTC
Wind: Calm:0
Visibility: 5 mile(s):0
Sky conditions: mostly clear
Temperature: 80 F (27 C)
Dew Point: 78 F (26 C)
Relative Humidity: 94%
Pressure (altimeter): 29.91 in. Hg (1013 hPa)
ob: WMSA 211800Z 00000KT 9000 FEW026 27/26 Q1013
cycle: 18

Station Type Date Time Source
WMSA TAF 2020/01/21 18:09 UTC NOAA

TAF WMSA 211700Z 2118/2218 VRB03KT 9999 FEW026
BECMG 2118/2120 5000 HZ
BECMG 2200/2202 9000 NSW FEW018
BECMG 2205/2206 23005KT FEW017CB

Example: see airport list